Time;durP1;ratioP1;P1;durP2;ratioP2;P2;SDS_P1;SDS_P2;PMS_P1;PMS_P2;Temp;Humidity;BMP_temperature;BMP_pressure;BME280_temperature;BME280_humidity;BME280_pressure;Samples;Min_cycle;Max_cycle;Signal;HPM_P1;HPM_P2
2022/05/14 00:01:00;;;;;;;11.43;6.72;;;17.50;99.90;;;;;;4956130;29;20140;-73
2022/05/14 00:03:27;;;;;;;12.45;7.03;;;17.50;99.90;;;;;;4956222;28;20033;-73
2022/05/14 00:05:54;;;;;;;11.75;7.13;;;17.50;99.90;;;;;;4955164;28;20033;-73
2022/05/14 00:08:27;;;;;;;10.40;6.93;;;17.40;99.90;;;;;;4955835;29;20133;-73
2022/05/14 00:13:38;;;;;;;15.63;7.25;;;17.30;99.90;;;;;;4955248;29;20047;-73
2022/05/14 00:16:05;;;;;;;12.80;7.43;;;17.20;99.90;;;;;;4955888;28;20075;-72
2022/05/14 00:18:31;;;;;;;13.77;7.60;;;17.20;99.90;;;;;;4955300;28;20031;-73
2022/05/14 00:20:57;;;;;;;12.65;7.18;;;17.20;99.90;;;;;;4955657;28;20031;-73
2022/05/14 00:23:23;;;;;;;10.48;7.00;;;17.20;99.90;;;;;;4955544;28;20082;-73
2022/05/14 00:25:49;;;;;;;13.07;7.82;;;17.10;99.90;;;;;;4954566;28;20042;-73
2022/05/14 00:28:15;;;;;;;10.65;7.35;;;17.20;99.90;;;;;;4936183;29;20071;-73
2022/05/14 00:30:41;;;;;;;15.82;7.95;;;17.10;99.90;;;;;;4949241;29;20419;-73
2022/05/14 00:33:07;;;;;;;13.00;8.68;;;17.10;99.90;;;;;;4955535;28;20464;-72
2022/05/14 00:35:33;;;;;;;12.00;8.02;;;17.10;99.90;;;;;;4955880;28;20571;-73
2022/05/14 00:38:00;;;;;;;16.25;8.40;;;17.10;99.90;;;;;;4955233;28;20114;-73
2022/05/14 00:40:30;;;;;;;15.50;8.88;;;17.10;99.90;;;;;;4955004;28;20555;-73
2022/05/14 00:42:56;;;;;;;12.75;9.07;;;17.10;99.90;;;;;;4955208;28;20024;-73
2022/05/14 00:45:22;;;;;;;15.32;8.75;;;17.10;99.90;;;;;;4942773;29;20083;-73
2022/05/14 00:47:54;;;;;;;13.63;8.75;;;17.20;99.90;;;;;;4935796;29;20059;-73
2022/05/14 00:50:30;;;;;;;12.65;8.40;;;17.20;99.90;;;;;;4936320;29;20364;-73
2022/05/14 00:53:06;;;;;;;12.27;8.20;;;17.20;99.90;;;;;;4935829;29;20542;-73
2022/05/14 00:55:32;;;;;;;11.93;8.20;;;17.20;99.90;;;;;;4948898;29;20502;-73
2022/05/14 00:58:01;;;;;;;13.02;8.48;;;17.10;99.90;;;;;;4955245;28;20039;-73
2022/05/14 01:00:29;;;;;;;14.52;8.70;;;17.10;99.90;;;;;;4955071;28;20027;-73
2022/05/14 01:02:55;;;;;;;11.27;8.30;;;17.10;99.90;;;;;;4955032;28;20051;-73
2022/05/14 01:05:21;;;;;;;12.15;8.18;;;17.00;99.90;;;;;;4955122;29;20067;-73
2022/05/14 01:07:51;;;;;;;17.35;8.77;;;17.00;99.90;;;;;;4954794;29;20035;-72
2022/05/14 01:10:21;;;;;;;13.10;8.25;;;16.90;99.90;;;;;;4947769;28;20019;-73
2022/05/14 01:12:54;;;;;;;13.23;8.32;;;16.80;99.90;;;;;;4954883;28;20155;-73
2022/05/14 01:15:23;;;;;;;16.55;9.15;;;16.80;99.90;;;;;;4954637;28;20591;-72
2022/05/14 01:17:49;;;;;;;18.63;8.60;;;16.80;99.90;;;;;;4954716;28;20093;-72
2022/05/14 01:20:16;;;;;;;10.52;8.05;;;16.80;99.90;;;;;;4954351;28;20031;-73
2022/05/14 01:23:19;;;;;;;15.65;9.45;;;16.80;99.90;;;;;;4954499;28;20579;-73
2022/05/14 01:28:34;;;;;;;12.15;8.18;;;16.80;99.90;;;;;;4954261;28;20438;-73
2022/05/14 01:31:01;;;;;;;15.15;8.25;;;16.70;99.90;;;;;;4954475;29;20106;-73
2022/05/14 01:33:27;;;;;;;15.05;8.90;;;16.60;99.90;;;;;;4954878;28;20074;-73
2022/05/14 01:35:53;;;;;;;13.85;8.98;;;16.60;99.90;;;;;;4954274;29;20483;-73
2022/05/14 01:38:21;;;;;;;13.23;9.18;;;16.60;99.90;;;;;;4953255;29;20062;-73
2022/05/14 01:40:47;;;;;;;15.52;9.20;;;16.70;99.90;;;;;;4954413;28;20041;-73
2022/05/14 01:43:14;;;;;;;19.85;10.98;;;16.60;99.90;;;;;;4953946;28;20031;-73
2022/05/14 01:45:39;;;;;;;29.73;11.60;;;16.50;99.90;;;;;;4934986;28;20042;-73
2022/05/14 01:48:06;;;;;;;20.13;11.15;;;16.50;99.90;;;;;;4934027;29;20032;-73
2022/05/14 01:50:32;;;;;;;23.05;11.68;;;16.60;99.90;;;;;;4933527;29;20453;-73
2022/05/14 01:52:57;;;;;;;20.80;10.48;;;16.60;99.90;;;;;;4934718;29;20062;-73
2022/05/14 01:55:23;;;;;;;18.05;10.07;;;16.50;99.90;;;;;;4934848;29;20111;-73
2022/05/14 01:57:49;;;;;;;15.13;9.98;;;16.50;99.90;;;;;;4935456;29;20024;-73
2022/05/14 02:00:16;;;;;;;13.50;8.77;;;16.40;99.90;;;;;;4934849;29;20071;-73
2022/05/14 02:02:43;;;;;;;14.63;9.20;;;16.30;99.90;;;;;;4934661;29;20035;-73
2022/05/14 02:05:08;;;;;;;13.98;9.23;;;16.20;99.90;;;;;;4953677;29;20436;-73
2022/05/14 02:07:34;;;;;;;11.68;7.47;;;16.30;99.90;;;;;;4952258;29;20030;-73
2022/05/14 02:10:00;;;;;;;13.52;8.15;;;16.40;99.90;;;;;;4952882;28;20028;-73
2022/05/14 02:12:26;;;;;;;14.30;8.48;;;16.40;99.90;;;;;;4953669;29;20024;-73
2022/05/14 02:14:51;;;;;;;14.48;9.25;;;16.40;99.90;;;;;;4954353;29;20457;-73
2022/05/14 02:17:17;;;;;;;11.20;7.75;;;16.30;99.90;;;;;;4953325;29;20066;-72
2022/05/14 02:19:42;;;;;;;15.05;8.45;;;16.30;99.90;;;;;;4953899;28;20038;-73
2022/05/14 02:22:08;;;;;;;15.18;8.23;;;16.30;99.90;;;;;;4953950;29;20027;-72
2022/05/14 02:24:35;;;;;;;14.40;8.15;;;16.20;99.90;;;;;;4938623;28;20090;-73
2022/05/14 02:27:02;;;;;;;11.38;7.38;;;16.20;99.90;;;;;;4949626;29;20043;-73
2022/05/14 02:29:50;;;;;;;10.68;7.70;;;16.20;99.90;;;;;;4953652;28;20027;-73
2022/05/14 02:32:13;;;;;;;10.65;6.97;;;16.10;99.90;;;;;;4954273;28;20026;-73
2022/05/14 02:34:39;;;;;;;10.20;7.45;;;16.10;99.90;;;;;;4952794;29;20415;-73
2022/05/14 02:37:05;;;;;;;11.18;7.25;;;16.10;99.90;;;;;;4952983;29;20479;-72
2022/05/14 02:39:30;;;;;;;10.85;7.88;;;16.10;99.90;;;;;;4953637;29;20543;-73
2022/05/14 02:41:56;;;;;;;8.75;7.25;;;16.10;99.90;;;;;;4956360;28;20557;-72
2022/05/14 02:44:21;;;;;;;13.00;7.65;;;16.00;99.90;;;;;;4957356;29;20538;-73
2022/05/14 02:46:47;;;;;;;12.40;7.95;;;15.90;99.90;;;;;;4957733;29;20580;-73
2022/05/14 02:49:13;;;;;;;12.40;7.40;;;15.80;99.90;;;;;;4957297;28;20038;-73
2022/05/14 02:51:38;;;;;;;10.88;8.25;;;15.90;99.90;;;;;;4956331;29;20035;-73
2022/05/14 02:54:04;;;;;;;10.55;7.47;;;15.90;99.90;;;;;;4957273;28;20030;-73
2022/05/14 02:56:30;;;;;;;12.15;7.88;;;15.80;99.90;;;;;;4955348;28;20028;-72
2022/05/14 02:59:08;;;;;;;10.50;7.15;;;15.80;99.90;;;;;;4956532;29;20039;-73
2022/05/14 03:01:34;;;;;;;15.55;8.55;;;15.70;99.90;;;;;;4956679;28;20054;-73
2022/05/14 03:04:00;;;;;;;14.98;8.32;;;15.80;99.90;;;;;;4957066;28;20035;-73
2022/05/14 03:06:27;;;;;;;14.13;8.02;;;15.80;99.90;;;;;;4956641;28;20046;-73
2022/05/14 03:08:53;;;;;;;17.58;8.70;;;15.90;99.90;;;;;;4957141;28;20106;-73
2022/05/14 03:11:20;;;;;;;13.60;8.65;;;15.90;99.90;;;;;;4956979;29;20102;-72
2022/05/14 03:13:45;;;;;;;14.95;10.40;;;15.80;99.90;;;;;;4944013;28;20380;-72
2022/05/14 03:16:12;;;;;;;13.82;8.40;;;15.80;99.90;;;;;;4954861;29;20031;-73
2022/05/14 03:18:38;;;;;;;12.18;8.65;;;15.70;99.90;;;;;;4956602;28;20035;-73
2022/05/14 03:21:04;;;;;;;11.90;8.02;;;15.70;99.90;;;;;;4957037;28;20082;-73
2022/05/14 03:23:30;;;;;;;14.00;8.45;;;15.60;99.90;;;;;;4954414;28;20035;-73
2022/05/14 03:25:55;;;;;;;14.82;8.82;;;15.60;99.90;;;;;;4947749;28;20051;-72
2022/05/14 03:28:21;;;;;;;12.93;8.75;;;15.50;99.90;;;;;;4937427;29;20039;-73
2022/05/14 03:30:47;;;;;;;13.65;8.90;;;15.50;99.90;;;;;;4938033;29;20027;-72
2022/05/14 03:33:13;;;;;;;13.32;9.23;;;15.60;99.90;;;;;;4943589;29;20061;-73
2022/05/14 03:35:39;;;;;;;12.00;8.45;;;15.60;99.90;;;;;;4956110;29;20518;-72
2022/05/14 03:38:04;;;;;;;14.57;8.80;;;15.60;99.90;;;;;;4956520;28;20038;-72
2022/05/14 03:40:30;;;;;;;11.93;8.23;;;15.50;99.90;;;;;;4956207;29;20034;-73
2022/05/14 03:42:56;;;;;;;12.15;8.43;;;15.50;99.90;;;;;;4955412;29;20073;-72
2022/05/14 03:45:21;;;;;;;13.25;8.45;;;15.60;99.90;;;;;;4955565;29;20023;-73
2022/05/14 03:47:47;;;;;;;15.18;8.63;;;15.50;99.90;;;;;;4955819;28;20479;-73
2022/05/14 03:50:13;;;;;;;19.70;8.60;;;15.50;99.90;;;;;;4956443;29;20471;-72
2022/05/14 03:52:40;;;;;;;12.73;8.68;;;15.50;99.90;;;;;;4954006;28;20047;-73
2022/05/14 03:55:06;;;;;;;15.75;7.65;;;15.50;99.90;;;;;;4956248;29;20027;-73
2022/05/14 03:57:31;;;;;;;11.52;8.20;;;15.40;99.90;;;;;;4956174;28;20027;-73
2022/05/14 03:59:58;;;;;;;11.32;7.70;;;15.40;99.90;;;;;;4956210;28;20203;-73
2022/05/14 04:02:24;;;;;;;14.65;8.38;;;15.30;99.90;;;;;;4954344;28;20588;-72
2022/05/14 04:04:50;;;;;;;13.88;8.75;;;15.30;99.90;;;;;;4954209;29;20031;-73
2022/05/14 04:07:16;;;;;;;13.18;8.52;;;15.30;99.90;;;;;;4955878;28;20042;-73
2022/05/14 04:09:41;;;;;;;14.43;9.02;;;15.20;99.90;;;;;;4956162;29;20023;-72
2022/05/14 04:12:08;;;;;;;13.98;9.32;;;15.10;99.90;;;;;;4956051;29;20042;-73
2022/05/14 04:14:34;;;;;;;16.33;9.75;;;15.30;99.90;;;;;;4953729;28;20015;-73
2022/05/14 04:17:00;;;;;;;13.43;7.88;;;15.30;99.90;;;;;;4955835;29;20115;-73
2022/05/14 04:19:26;;;;;;;12.55;9.02;;;15.20;99.90;;;;;;4955881;28;20050;-73
2022/05/14 04:21:52;;;;;;;12.48;8.77;;;15.10;99.90;;;;;;4955376;28;20027;-73
2022/05/14 04:24:18;;;;;;;12.45;8.75;;;15.10;99.90;;;;;;4955583;29;20027;-73
2022/05/14 04:26:43;;;;;;;12.18;8.50;;;15.10;99.90;;;;;;4955243;28;20137;-73
2022/05/14 04:29:09;;;;;;;14.32;8.75;;;15.10;99.90;;;;;;4955639;28;20031;-72
2022/05/14 04:31:35;;;;;;;14.45;9.23;;;15.00;99.90;;;;;;4955258;28;20385;-72
2022/05/14 04:34:01;;;;;;;12.75;8.73;;;15.10;99.90;;;;;;4955156;28;20022;-73
2022/05/14 04:36:27;;;;;;;23.35;9.55;;;15.20;99.90;;;;;;4955484;28;20031;-73
2022/05/14 04:38:52;;;;;;;13.02;9.98;;;15.30;99.90;;;;;;4955488;29;20038;-73
2022/05/14 04:41:18;;;;;;;13.00;8.63;;;15.20;99.90;;;;;;4955742;28;20039;-73
2022/05/14 04:43:44;;;;;;;13.38;9.85;;;15.10;99.90;;;;;;4940822;29;20024;-73
2022/05/14 04:46:10;;;;;;;13.88;10.07;;;15.10;99.90;;;;;;4936074;29;20047;-73
2022/05/14 04:48:37;;;;;;;13.18;9.75;;;15.10;99.90;;;;;;4936396;29;20063;-73
2022/05/14 04:51:03;;;;;;;14.85;9.75;;;15.20;99.90;;;;;;4937104;29;20030;-73
2022/05/14 04:53:29;;;;;;;12.38;9.95;;;15.20;99.90;;;;;;4954605;28;20086;-73
2022/05/14 04:55:55;;;;;;;16.02;9.95;;;15.10;99.90;;;;;;4955094;28;20413;-73
2022/05/14 04:58:22;;;;;;;16.23;10.50;;;15.10;99.90;;;;;;4954948;28;20391;-73
2022/05/14 05:00:47;;;;;;;14.55;10.15;;;15.10;99.90;;;;;;4955074;28;20062;-73
2022/05/14 05:03:19;;;;;;;16.67;9.45;;;15.10;99.90;;;;;;4944845;28;20031;-73
2022/05/14 05:05:49;;;;;;;;;;;15.20;99.90;;;;;;4935984;29;20027;-73
2022/05/14 05:08:15;;;;;;;15.07;10.65;;;15.20;99.90;;;;;;4935660;29;20009;-73
2022/05/14 05:10:42;;;;;;;20.45;12.07;;;15.30;99.90;;;;;;4935479;29;20028;-73
2022/05/14 05:13:13;;;;;;;18.58;11.90;;;15.40;99.90;;;;;;4944315;29;20058;-73
2022/05/14 05:15:39;;;;;;;17.33;12.25;;;15.50;99.90;;;;;;4954375;28;20090;-73
2022/05/14 05:18:06;;;;;;;20.80;11.55;;;15.50;99.90;;;;;;4954832;28;20085;-72
2022/05/14 05:20:33;;;;;;;16.90;11.88;;;15.60;99.90;;;;;;4954709;28;20051;-73
2022/05/14 05:22:58;;;;;;;17.13;11.52;;;15.60;99.90;;;;;;4953302;28;20121;-73
2022/05/14 05:25:24;;;;;;;17.48;11.00;;;15.70;99.90;;;;;;4949335;28;20403;-73
2022/05/14 05:27:50;;;;;;;20.63;11.30;;;15.70;99.90;;;;;;4954168;29;20027;-73
2022/05/14 05:30:16;;;;;;;25.27;11.95;;;15.70;99.90;;;;;;4954217;28;20071;-73
2022/05/14 05:32:42;;;;;;;18.30;11.65;;;15.80;99.90;;;;;;4948523;29;20023;-72
2022/05/14 05:35:08;;;;;;;17.30;11.13;;;15.90;99.90;;;;;;4935311;29;20476;-73
2022/05/14 05:37:34;;;;;;;15.60;11.55;;;15.90;99.90;;;;;;4935420;29;20051;-73
2022/05/14 05:40:00;;;;;;;16.13;11.20;;;16.00;99.90;;;;;;4935125;29;20126;-73
2022/05/14 05:42:26;;;;;;;16.30;11.40;;;15.90;99.90;;;;;;4937692;29;20024;-72
2022/05/14 05:44:51;;;;;;;18.08;11.30;;;15.90;99.90;;;;;;4953790;28;20038;-73
2022/05/14 05:47:17;;;;;;;17.33;11.40;;;16.00;99.90;;;;;;4953958;28;20400;-73
2022/05/14 05:49:43;;;;;;;16.52;11.30;;;16.00;99.90;;;;;;4954004;28;20031;-73
2022/05/14 05:52:11;;;;;;;17.10;11.70;;;16.00;99.90;;;;;;4952683;28;20027;-73
2022/05/14 05:57:33;;;;;;;16.63;11.02;;;16.10;99.90;;;;;;4935172;29;20030;-73
2022/05/14 05:59:59;;;;;;;18.70;11.82;;;16.20;99.90;;;;;;4934570;29;20507;-73
2022/05/14 06:02:25;;;;;;;15.95;12.30;;;16.30;99.90;;;;;;4937874;29;20492;-73
2022/05/14 06:04:51;;;;;;;15.82;10.95;;;16.40;99.90;;;;;;4954444;28;20027;-73
2022/05/14 06:07:16;;;;;;;15.80;10.68;;;16.40;99.90;;;;;;4953987;28;20027;-72
2022/05/14 06:09:42;;;;;;;15.55;11.00;;;16.50;99.90;;;;;;4952702;29;20083;-73
2022/05/14 06:12:09;;;;;;;14.82;11.30;;;16.60;99.90;;;;;;4952873;28;20031;-73
2022/05/14 06:14:34;;;;;;;15.13;10.98;;;16.70;99.90;;;;;;4934339;29;20024;-73
2022/05/14 06:17:00;;;;;;;15.90;11.48;;;16.80;99.90;;;;;;4933840;29;20051;-73
2022/05/14 06:19:26;;;;;;;16.95;10.88;;;17.00;99.90;;;;;;4934935;29;20106;-72
2022/05/14 06:21:51;;;;;;;15.27;11.02;;;17.10;99.90;;;;;;4934642;29;20538;-73
2022/05/14 06:24:17;;;;;;;15.45;10.75;;;17.20;99.90;;;;;;4951525;29;20538;-73
2022/05/14 06:26:43;;;;;;;18.08;12.05;;;17.30;99.90;;;;;;4953269;28;20040;-73
2022/05/14 06:29:09;;;;;;;14.43;10.90;;;17.30;99.90;;;;;;4953331;29;20027;-73
2022/05/14 06:31:35;;;;;;;16.52;10.98;;;17.40;99.90;;;;;;4944085;28;20507;-72
2022/05/14 06:34:01;;;;;;;16.85;10.35;;;17.50;99.90;;;;;;4949465;29;20078;-74
2022/05/14 06:36:27;;;;;;;17.48;10.48;;;17.60;99.90;;;;;;4952355;29;20027;-73
2022/05/14 06:38:53;;;;;;;17.70;10.82;;;17.70;99.90;;;;;;4953766;28;20031;-73
2022/05/14 06:41:18;;;;;;;13.88;9.98;;;17.80;99.90;;;;;;4952840;28;20031;-73
2022/05/14 06:43:45;;;;;;;12.07;9.05;;;17.90;99.90;;;;;;4959108;28;20165;-73
2022/05/14 06:46:11;;;;;;;15.25;9.13;;;17.90;99.90;;;;;;4953065;29;20596;-73
2022/05/14 06:48:37;;;;;;;14.23;9.73;;;18.00;99.90;;;;;;4966591;28;20538;-74
2022/05/14 06:51:07;;;;;;;13.43;9.95;;;18.10;99.90;;;;;;4958046;28;20020;-73
2022/05/14 06:53:39;;;;;;;15.32;9.75;;;18.10;99.90;;;;;;4956324;28;20018;-73
2022/05/14 06:56:06;;;;;;;;;;;18.10;99.90;;;;;;4966711;28;20023;-73
2022/05/14 06:58:37;;;;;;;14.30;9.43;;;18.10;99.90;;;;;;4953642;29;19989;-73
2022/05/14 07:01:03;;;;;;;16.45;10.80;;;18.20;99.90;;;;;;4953407;28;20033;-73
2022/05/14 07:09:00;;;;;;;18.30;10.10;;;18.30;99.90;;;;;;4956431;29;20038;-73
2022/05/14 07:11:26;;;;;;;11.02;8.55;;;18.30;99.90;;;;;;4953394;28;20023;-73
2022/05/14 07:13:52;;;;;;;14.15;10.05;;;18.30;99.90;;;;;;4953857;29;20079;-73
2022/05/14 07:16:18;;;;;;;13.88;9.93;;;18.40;99.90;;;;;;4952491;28;20035;-72
2022/05/14 07:18:44;;;;;;;12.25;9.25;;;18.50;99.90;;;;;;4942941;28;20039;-72
2022/05/14 07:21:10;;;;;;;14.68;9.57;;;18.50;99.90;;;;;;4953832;29;20078;-73
2022/05/14 07:23:36;;;;;;;20.00;9.75;;;18.60;99.90;;;;;;4952321;28;20030;-73
2022/05/14 07:26:05;;;;;;;13.20;9.50;;;18.70;99.90;;;;;;4960709;28;20138;-79
2022/05/14 07:28:33;;;;;;;12.05;9.45;;;18.80;99.90;;;;;;4970227;28;20023;-72
2022/05/14 07:31:00;;;;;;;15.43;8.68;;;18.80;99.90;;;;;;4956679;29;20031;-72
2022/05/14 07:33:26;;;;;;;13.40;9.88;;;18.80;99.90;;;;;;4957242;28;20022;-72
2022/05/14 07:35:52;;;;;;;12.30;8.82;;;18.90;99.90;;;;;;4957280;28;20023;-72
2022/05/14 07:38:18;;;;;;;11.93;7.70;;;19.10;99.90;;;;;;4956523;29;20380;-72
2022/05/14 07:40:44;;;;;;;14.18;8.48;;;19.30;99.90;;;;;;4956892;28;20028;-72
2022/05/14 07:43:17;;;;;;;19.08;8.88;;;19.30;99.90;;;;;;4957009;28;20027;-73
2022/05/14 07:45:45;;;;;;;12.52;8.73;;;19.40;99.90;;;;;;4956605;28;20165;-73
2022/05/14 07:48:16;;;;;;;12.55;8.15;;;19.40;99.90;;;;;;4956103;28;20055;-72
2022/05/14 07:50:42;;;;;;;11.23;7.68;;;19.60;99.90;;;;;;4956785;28;20547;-72
2022/05/14 07:53:08;;;;;;;12.32;8.05;;;19.80;99.90;;;;;;4956146;29;20055;-72
2022/05/14 07:55:34;;;;;;;11.93;7.68;;;19.90;99.90;;;;;;4954601;29;20062;-72
2022/05/14 07:58:00;;;;;;;12.48;8.00;;;20.00;99.90;;;;;;4954448;28;20503;-72
2022/05/14 08:00:26;;;;;;;11.93;7.80;;;20.20;99.90;;;;;;4954949;28;20038;-72
2022/05/14 08:02:52;;;;;;;14.35;8.18;;;20.40;99.90;;;;;;4956622;29;20031;-72
2022/05/14 08:05:21;;;;;;;10.65;7.68;;;20.60;99.90;;;;;;4955787;28;20036;-72
2022/05/14 08:07:48;;;;;;;13.05;7.45;;;20.90;99.90;;;;;;4955941;28;20053;-72
2022/05/14 08:10:16;;;;;;;12.80;6.65;;;21.20;99.90;;;;;;4955540;28;20031;-72
2022/05/14 08:12:44;;;;;;;14.60;6.85;;;21.30;99.90;;;;;;4956653;28;20046;-72
2022/05/14 08:15:13;;;;;;;8.10;6.15;;;21.60;99.90;;;;;;4955894;29;20051;-72
2022/05/14 08:17:39;;;;;;;10.13;6.05;;;22.00;99.90;;;;;;4955867;28;20031;-72
2022/05/14 08:20:05;;;;;;;11.52;6.82;;;22.30;99.90;;;;;;4955932;28;20039;-72
2022/05/14 08:25:15;;;;;;;11.05;6.07;;;22.90;99.90;;;;;;4954892;29;20518;-73
2022/05/14 08:27:47;;;;;;;13.07;6.10;;;23.00;99.90;;;;;;4955407;29;20059;-72
2022/05/14 08:30:16;;;;;;;9.52;5.80;;;23.30;99.90;;;;;;4955628;28;20376;-72
2022/05/14 08:32:41;;;;;;;12.00;5.78;;;23.50;99.90;;;;;;4955652;29;20094;-72
2022/05/14 08:35:08;;;;;;;9.75;5.30;;;23.70;99.90;;;;;;4955328;28;20534;-72
2022/05/14 08:37:34;;;;;;;10.85;5.28;;;24.10;99.90;;;;;;4955878;28;20027;-72
2022/05/14 08:40:10;;;;;;;6.65;4.63;;;24.30;99.90;;;;;;4954486;28;20495;-72
2022/05/14 08:42:38;;;;;;;7.95;5.20;;;24.60;99.90;;;;;;4955505;28;20031;-72
2022/05/14 08:45:04;;;;;;;5.50;4.18;;;24.80;99.90;;;;;;4955463;28;20038;-72
2022/05/14 08:47:46;;;;;;;10.38;5.43;;;24.90;99.90;;;;;;4955500;29;20023;-72
2022/05/14 08:50:12;;;;;;;11.13;5.15;;;24.90;99.60;;;;;;4955173;28;20026;-72
2022/05/14 08:52:39;;;;;;;6.55;4.97;;;25.20;99.40;;;;;;4954935;29;20035;-72
2022/05/14 08:55:12;;;;;;;7.68;4.53;;;25.40;98.50;;;;;;4955363;28;20023;-72
2022/05/14 08:57:49;;;;;;;11.93;4.80;;;25.30;97.10;;;;;;4955165;28;20082;-72
2022/05/14 09:00:16;;;;;;;8.30;5.22;;;25.30;97.20;;;;;;4954960;29;20456;-72
2022/05/14 09:02:48;;;;;;;6.80;4.57;;;25.50;96.20;;;;;;4955223;28;20058;-72
2022/05/14 09:05:30;;;;;;;10.52;5.15;;;25.80;96.90;;;;;;4954769;28;20536;-72
2022/05/14 09:07:57;;;;;;;7.88;4.75;;;25.70;95.50;;;;;;4954904;29;20032;-72
2022/05/14 09:10:32;;;;;;;9.45;5.32;;;25.30;96.40;;;;;;4954386;28;20102;-72
2022/05/14 09:13:09;;;;;;;5.82;4.53;;;24.90;96.00;;;;;;4954757;28;20070;-72
2022/05/14 09:15:47;;;;;;;9.95;5.10;;;25.00;96.20;;;;;;4954848;28;20427;-72
2022/05/14 09:18:21;;;;;;;12.18;4.80;;;25.30;96.20;;;;;;4955266;29;20023;-72
2022/05/14 09:21:15;;;;;;;9.68;5.22;;;25.60;96.70;;;;;;4954843;28;20032;-72
2022/05/14 09:23:44;;;;;;;11.85;4.35;;;25.90;95.20;;;;;;4954527;28;20102;-72
2022/05/14 09:26:20;;;;;;;8.80;4.70;;;26.10;94.90;;;;;;4954147;29;20086;-73
2022/05/14 09:28:48;;;;;;;8.30;4.90;;;26.60;94.70;;;;;;4954703;28;20023;-72
2022/05/14 09:31:39;;;;;;;11.15;4.18;;;26.60;93.90;;;;;;4954370;28;20082;-72
2022/05/14 09:34:13;;;;;;;8.55;4.13;;;26.50;92.70;;;;;;4954623;28;20026;-72
2022/05/14 09:36:40;;;;;;;6.35;3.95;;;26.70;91.90;;;;;;4954077;28;20023;-72
2022/05/14 09:39:15;;;;;;;6.30;3.95;;;26.70;92.80;;;;;;4954546;28;20443;-72
2022/05/14 09:41:52;;;;;;;6.57;3.15;;;26.80;91.50;;;;;;4954403;28;20027;-72
2022/05/14 09:44:27;;;;;;;8.88;4.20;;;26.90;91.40;;;;;;4954692;28;20110;-72
2022/05/14 09:47:07;;;;;;;11.05;3.38;;;27.20;90.70;;;;;;4954520;28;20110;-72
2022/05/14 09:49:33;;;;;;;8.68;3.60;;;27.20;88.70;;;;;;4953981;28;20027;-72
2022/05/14 09:52:05;;;;;;;6.90;3.08;;;27.50;89.10;;;;;;4953762;29;20103;-72
2022/05/14 09:54:46;;;;;;;5.70;3.10;;;27.20;89.40;;;;;;4954386;28;20016;-72
2022/05/14 09:57:45;;;;;;;8.65;3.60;;;27.10;89.70;;;;;;4954123;28;20019;-72
2022/05/14 10:00:13;;;;;;;5.55;3.40;;;27.10;89.60;;;;;;4953929;28;20503;-72
2022/05/14 10:02:53;;;;;;;6.90;3.17;;;27.30;87.30;;;;;;4953843;28;20027;-77
2022/05/14 10:05:22;;;;;;;4.88;3.25;;;27.40;86.30;;;;;;4953552;29;20028;-73
2022/05/14 10:07:53;;;;;;;8.30;3.33;;;27.50;89.10;;;;;;4954340;28;20501;-73
2022/05/14 10:10:53;;;;;;;7.72;3.00;;;27.90;86.00;;;;;;4953828;28;20113;-73
2022/05/14 10:13:32;;;;;;;7.05;3.40;;;28.00;86.60;;;;;;4952086;28;20483;-73
2022/05/14 10:16:32;;;;;;;7.10;3.65;;;27.60;87.50;;;;;;4953822;28;20023;-73
2022/05/14 10:19:37;;;;;;;9.95;3.40;;;27.70;86.00;;;;;;4951402;29;20039;-72
2022/05/14 10:22:15;;;;;;;7.65;3.92;;;28.00;85.60;;;;;;4913525;29;20040;-73
2022/05/14 10:28:17;;;;;;;9.57;3.45;;;28.40;85.20;;;;;;4913532;29;20099;-73
2022/05/14 10:30:58;;;;;;;10.82;3.45;;;28.40;82.80;;;;;;4913466;29;20032;-73
2022/05/14 10:33:27;;;;;;;14.50;3.58;;;28.80;83.70;;;;;;4913038;29;20576;-73
2022/05/14 10:35:53;;;;;;;8.88;3.60;;;28.80;82.50;;;;;;4906824;29;20106;-74
2022/05/14 10:38:26;;;;;;;8.23;3.05;;;28.60;81.70;;;;;;4907050;29;20037;-74
2022/05/14 10:40:56;;;;;;;9.40;3.70;;;28.40;82.90;;;;;;4908944;29;20032;-73
2022/05/14 10:43:33;;;;;;;9.73;4.10;;;28.20;82.10;;;;;;4913962;29;20503;-80
2022/05/14 10:46:04;;;;;;;7.05;3.83;;;27.90;83.30;;;;;;4913427;29;20331;-72
2022/05/14 10:48:33;;;;;;;7.50;3.63;;;28.00;82.80;;;;;;4913042;29;20079;-74
2022/05/14 10:51:01;;;;;;;7.03;3.40;;;28.50;81.70;;;;;;4911638;29;20020;-73
2022/05/14 10:53:27;;;;;;;5.05;3.92;;;28.80;83.60;;;;;;4914353;29;20036;-78
2022/05/14 10:55:58;;;;;;;6.22;3.70;;;28.90;82.20;;;;;;4915423;29;20112;-73
2022/05/14 10:58:36;;;;;;;7.50;3.72;;;28.60;81.80;;;;;;4925538;29;20110;-73
2022/05/14 11:01:29;;;;;;;6.68;3.17;;;28.80;81.90;;;;;;4951563;28;20027;-74
2022/05/14 11:03:58;;;;;;;5.35;3.20;;;29.30;81.00;;;;;;4954374;28;20086;-74
2022/05/14 11:06:47;;;;;;;7.18;3.88;;;29.20;80.20;;;;;;4959288;28;20514;-76
2022/05/14 11:09:43;;;;;;;6.10;3.03;;;29.00;80.60;;;;;;4964205;28;20042;-73
2022/05/14 11:12:27;;;;;;;8.73;3.55;;;29.00;77.30;;;;;;4962914;28;20042;-73
2022/05/14 11:14:56;;;;;;;11.30;3.97;;;29.10;78.40;;;;;;4956680;28;20348;-73
2022/05/14 11:17:27;;;;;;;7.82;3.47;;;29.50;77.30;;;;;;4954929;29;20019;-73
2022/05/14 11:20:15;;;;;;;8.35;3.35;;;29.80;78.00;;;;;;4956120;29;20066;-73
2022/05/14 11:22:44;;;;;;;6.40;3.00;;;30.20;78.60;;;;;;4954880;28;20061;-74
2022/05/14 11:25:13;;;;;;;16.48;3.88;;;30.00;76.10;;;;;;4955368;28;20491;-73
2022/05/14 11:27:40;;;;;;;8.98;3.47;;;29.90;74.70;;;;;;4954385;29;20077;-74
2022/05/14 11:30:12;;;;;;;9.40;3.10;;;30.10;72.60;;;;;;4955655;28;20026;-73
2022/05/14 11:32:58;;;;;;;9.27;3.40;;;30.00;73.80;;;;;;4954557;29;20059;-74
2022/05/14 11:35:39;;;;;;;6.95;2.95;;;30.00;72.90;;;;;;4953534;29;20032;-73
2022/05/14 11:38:14;;;;;;;6.87;3.13;;;29.80;71.50;;;;;;4952141;28;20023;-73
2022/05/14 11:40:40;;;;;;;11.23;3.33;;;30.00;70.20;;;;;;4955244;28;20042;-73
2022/05/14 11:43:21;;;;;;;12.80;3.38;;;30.00;71.50;;;;;;4955751;29;20035;-73
2022/05/14 11:46:13;;;;;;;10.30;3.25;;;30.00;70.10;;;;;;4954057;28;20016;-72
2022/05/14 11:48:43;;;;;;;4.95;3.30;;;30.10;71.40;;;;;;4952141;29;20122;-73
2022/05/14 11:51:13;;;;;;;7.53;3.25;;;30.10;70.80;;;;;;4953489;29;20507;-73
2022/05/14 11:53:43;;;;;;;8.20;3.38;;;30.30;70.90;;;;;;4951702;29;20063;-73
2022/05/14 11:56:23;;;;;;;5.63;3.22;;;30.10;72.30;;;;;;4952525;29;20027;-74
2022/05/14 11:59:00;;;;;;;4.07;3.08;;;30.60;71.30;;;;;;4952621;29;20061;-73
2022/05/14 12:01:34;;;;;;;4.50;3.00;;;30.70;70.50;;;;;;4952522;29;20035;-73
2022/05/14 12:04:02;;;;;;;6.47;3.08;;;30.40;71.10;;;;;;4952303;29;20112;-73
2022/05/14 12:07:00;;;;;;;8.65;3.50;;;30.80;69.80;;;;;;4952402;29;20086;-74
2022/05/14 12:09:40;;;;;;;6.60;3.25;;;30.80;70.60;;;;;;4945846;29;20047;-73
2022/05/14 12:12:17;;;;;;;9.48;3.13;;;30.80;68.50;;;;;;4952064;29;20059;-73
2022/05/14 12:14:44;;;;;;;7.53;3.35;;;31.20;69.80;;;;;;4951227;28;20023;-73
2022/05/14 12:17:16;;;;;;;7.25;3.00;;;30.90;68.10;;;;;;4952433;29;20042;-73
2022/05/14 12:19:44;;;;;;;8.35;2.90;;;30.80;68.00;;;;;;4952769;29;20047;-73
2022/05/14 12:22:15;;;;;;;5.85;2.80;;;30.20;67.00;;;;;;4952778;29;20503;-73
2022/05/14 12:24:51;;;;;;;;;;;30.70;69.20;;;;;;4952456;29;20031;-73
2022/05/14 12:27:19;;;;;;;10.45;3.00;;;31.10;67.40;;;;;;4953978;28;19922;-76
2022/05/14 12:33:11;;;;;;;9.05;2.83;;;31.00;64.90;;;;;;4954695;28;20356;-73
2022/05/14 12:33:12;;;;;;;6.75;2.88;;;30.70;63.40;;;;;;4953769;28;20077;-73
2022/05/14 12:35:41;;;;;;;7.75;3.28;;;30.80;62.80;;;;;;4954284;28;20019;-74
2022/05/14 12:38:11;;;;;;;6.93;2.90;;;30.20;62.60;;;;;;4954472;28;20033;-71
2022/05/14 12:40:39;;;;;;;10.63;2.97;;;29.80;63.50;;;;;;4954302;29;20062;-71
2022/05/14 12:43:07;;;;;;;7.10;2.67;;;30.30;63.90;;;;;;4953552;29;20698;-72
2022/05/14 12:45:38;;;;;;;5.32;2.83;;;30.20;64.50;;;;;;4953489;28;20038;-71
2022/05/14 12:48:06;;;;;;;6.40;3.07;;;30.60;62.60;;;;;;4953807;28;20044;-71
2022/05/14 12:50:32;;;;;;;6.53;2.72;;;30.30;62.10;;;;;;4954500;28;20026;-72
2022/05/14 12:53:05;;;;;;;6.88;2.65;;;30.40;62.90;;;;;;4953383;29;20089;-72
2022/05/14 12:55:36;;;;;;;9.43;2.55;;;30.30;60.50;;;;;;4954322;28;20016;-71
2022/05/14 12:58:04;;;;;;;4.78;2.20;;;30.10;60.40;;;;;;4951382;29;20082;-72
2022/05/14 13:00:32;;;;;;;5.28;2.67;;;30.20;59.60;;;;;;4953765;28;20025;-71
2022/05/14 13:03:07;;;;;;;7.18;2.60;;;30.60;60.30;;;;;;4948635;28;20046;-72
2022/05/14 13:05:45;;;;;;;9.00;3.00;;;30.90;57.50;;;;;;4955035;28;20075;-72
2022/05/14 13:08:14;;;;;;;6.38;3.05;;;31.10;58.80;;;;;;4959554;28;20022;-72
2022/05/14 13:10:47;;;;;;;6.47;3.00;;;30.80;60.50;;;;;;4954498;29;20035;-72